Santa Rita — DIOY2 — position and weather

sailwx.info

Track history (hours):
 
Tides and Currents Weather Stations Pressure Air Temp Water Temp Dewpoint Dewpoint Depression Visibility Wind Speed Wind Dir Waves Ship Positions

Santa Rita

Last reported at 2016-Aug-14 02:03 UTC. Time now 2016-Aug-27 04:39 UTC.
Position N 30°29' E 122°36'.
Warning: this ship's position is 13 days out of date.

Length 300 m; draft 12.5 m.

Type: Ship (hazmat cat A). MMSI: 218670000.

Date/timePositionNaut miles runAvg speedWind from/ knotsBaromVisibWave heightAir tempDewpointWater temp
2016-Aug-14 02:03N 30°29' E 122°36'6 8.9
2016-Aug-14 01:26N 30°29' E 122°43'1112.2
2016-Aug-14 00:29N 30°23' E 122°53'4711.2
2016-Aug-13 20:15N 29°40' E 122°29'913.7
2016-Aug-13 19:34N 29°44' E 122°20'1010.4
2016-Aug-13 18:33N 29°50' E 122°10'9 8.4
2016-Aug-13 17:33N 29°46' E 122°01'0 0.0
2016-Aug-13 11:21N 29°46' E 122°01'0 0.0
2016-Aug-13 00:32N 29°46' E 122°01'4 3.8
2016-Aug-12 23:33N 29°48' E 122°05'9 9.0
2016-Aug-12 22:30N 29°48' E 122°15'9 9.3
2016-Aug-12 21:33N 29°44' E 122°24'1312.5
2016-Aug-12 20:32N 29°36' E 122°37'35512.7
2016-Aug-11 16:30N 24°30' E 119°15'5612.9
2016-Aug-11 12:12N 24°14' E 118°16'913.6
2016-Aug-11 11:33N 24°21' E 118°10'1010.0
2016-Aug-11 10:33N 24°29' E 118°04'2 1.8
2016-Aug-11 09:32N 24°31' E 118°05'0 0.0
2016-Aug-11 08:32N 24°31' E 118°05'0 0.0
2016-Aug-11 07:26N 24°31' E 118°05'0 0.0
2016-Aug-11 06:32N 24°31' E 118°05'0 0.0
2016-Aug-11 05:26N 24°31' E 118°05'0 0.0
2016-Aug-11 04:32N 24°31' E 118°05'0 0.0
2016-Aug-11 03:29N 24°31' E 118°05'0 0.1
2016-Aug-11 02:34N 24°31' E 118°05'7 7.3
2016-Aug-11 01:34N 24°24' E 118°07'1010.2
2016-Aug-11 00:33N 24°16' E 118°14'8 8.1
2016-Aug-10 23:34N 24°10' E 118°20'9 9.0
2016-Aug-10 22:33N 24°01' E 118°18'1110.2
2016-Aug-10 21:28N 23°51' E 118°12'18 9.5
2016-Aug-10 19:33N 23°39' E 117°57'214 9.7
2016-Aug-09 21:33N 22°34' E 114°16'24 1.5
2016-Aug-09 05:34N 22°15' E 114°30'10 9.7
2016-Aug-09 04:33N 22°07' E 114°25'20 9.0
2016-Aug-09 02:17N 22°18' E 114°06'3 0.2
2016-Aug-08 08:18N 22°20' E 114°07'15 7.0
2016-Aug-08 06:09N 22°08' E 114°17'610.8
2016-Aug-08 05:33N 22°08' E 114°24'14015.0
2016-Aug-07 20:12N 22°49' E 116°50'1115.8
2016-Aug-07 19:31N 22°55' E 116°59'13414.7
2016-Aug-07 10:26N 24°16' E 118°55'1415.3
2016-Aug-07 09:29N 24°25' E 119°07'1415.1
2016-Aug-07 08:33N 24°33' E 119°20'3714.9
2016-Aug-07 06:04N 24°52' E 119°55'  
Track history (hours):
 
Tides and Currents Weather Stations Pressure Air Temp Water Temp Dewpoint Dewpoint Depression Visibility Wind Speed Wind Dir Waves Ship Positions

Santa Rita

Last reported at 2016-Aug-14 02:03 UTC. Time now 2016-Aug-27 04:39 UTC.
Position N 30°29' E 122°36'.
Warning: this ship's position is 13 days out of date.

Length 300 m; draft 12.5 m.

Type: Ship (hazmat cat A). MMSI: 218670000.

Date/timePositionNaut miles runAvg speedWind from/ knotsBaromVisibWave heightAir tempDewpointWater temp
2016-Aug-14 02:03N 30°29' E 122°36'6 8.9
2016-Aug-14 01:26N 30°29' E 122°43'1112.2
2016-Aug-14 00:29N 30°23' E 122°53'4711.2
2016-Aug-13 20:15N 29°40' E 122°29'913.7
2016-Aug-13 19:34N 29°44' E 122°20'1010.4
2016-Aug-13 18:33N 29°50' E 122°10'9 8.4
2016-Aug-13 17:33N 29°46' E 122°01'0 0.0
2016-Aug-13 11:21N 29°46' E 122°01'0 0.0
2016-Aug-13 00:32N 29°46' E 122°01'4 3.8
2016-Aug-12 23:33N 29°48' E 122°05'9 9.0
2016-Aug-12 22:30N 29°48' E 122°15'9 9.3
2016-Aug-12 21:33N 29°44' E 122°24'1312.5
2016-Aug-12 20:32N 29°36' E 122°37'35512.7
2016-Aug-11 16:30N 24°30' E 119°15'5612.9
2016-Aug-11 12:12N 24°14' E 118°16'913.6
2016-Aug-11 11:33N 24°21' E 118°10'1010.0
2016-Aug-11 10:33N 24°29' E 118°04'2 1.8
2016-Aug-11 09:32N 24°31' E 118°05'0 0.0
2016-Aug-11 08:32N 24°31' E 118°05'0 0.0
2016-Aug-11 07:26N 24°31' E 118°05'0 0.0
2016-Aug-11 06:32N 24°31' E 118°05'0 0.0
2016-Aug-11 05:26N 24°31' E 118°05'0 0.0
2016-Aug-11 04:32N 24°31' E 118°05'0 0.0
2016-Aug-11 03:29N 24°31' E 118°05'0 0.1
2016-Aug-11 02:34N 24°31' E 118°05'7 7.3
2016-Aug-11 01:34N 24°24' E 118°07'1010.2
2016-Aug-11 00:33N 24°16' E 118°14'8 8.1
2016-Aug-10 23:34N 24°10' E 118°20'9 9.0
2016-Aug-10 22:33N 24°01' E 118°18'1110.2
2016-Aug-10 21:28N 23°51' E 118°12'18 9.5
2016-Aug-10 19:33N 23°39' E 117°57'214 9.7
2016-Aug-09 21:33N 22°34' E 114°16'24 1.5
2016-Aug-09 05:34N 22°15' E 114°30'10 9.7
2016-Aug-09 04:33N 22°07' E 114°25'20 9.0
2016-Aug-09 02:17N 22°18' E 114°06'3 0.2
2016-Aug-08 08:18N 22°20' E 114°07'15 7.0
2016-Aug-08 06:09N 22°08' E 114°17'610.8
2016-Aug-08 05:33N 22°08' E 114°24'14015.0
2016-Aug-07 20:12N 22°49' E 116°50'1115.8
2016-Aug-07 19:31N 22°55' E 116°59'13414.7
2016-Aug-07 10:26N 24°16' E 118°55'1415.3
2016-Aug-07 09:29N 24°25' E 119°07'1415.1
2016-Aug-07 08:33N 24°33' E 119°20'3714.9
2016-Aug-07 06:04N 24°52' E 119°55'  

Dump ship's entire track history